sensor_id;sensor_type;location;lat;lon;timestamp;P1;durP1;ratioP1;P2;durP2;ratioP2
23078;SDS011;11707;50.830;4.364;2024-02-14T00:00:38;7.63;;;4.07;;
23078;SDS011;11707;50.830;4.364;2024-02-14T00:03:08;7.15;;;4.43;;
23078;SDS011;11707;50.830;4.364;2024-02-14T00:05:36;9.45;;;4.28;;
23078;SDS011;11707;50.830;4.364;2024-02-14T00:08:06;6.85;;;3.95;;
23078;SDS011;11707;50.830;4.364;2024-02-14T00:10:34;8.05;;;4.05;;
23078;SDS011;11707;50.830;4.364;2024-02-14T00:13:00;6.78;;;3.47;;
23078;SDS011;11707;50.830;4.364;2024-02-14T00:15:27;9.02;;;3.92;;
23078;SDS011;11707;50.830;4.364;2024-02-14T00:17:53;7.35;;;3.88;;
23078;SDS011;11707;50.830;4.364;2024-02-14T00:20:18;7.40;;;3.90;;
23078;SDS011;11707;50.830;4.364;2024-02-14T00:22:47;6.30;;;3.47;;
23078;SDS011;11707;50.830;4.364;2024-02-14T00:25:13;9.80;;;4.43;;
23078;SDS011;11707;50.830;4.364;2024-02-14T00:27:38;8.30;;;3.70;;
23078;SDS011;11707;50.830;4.364;2024-02-14T00:30:05;5.00;;;3.50;;
23078;SDS011;11707;50.830;4.364;2024-02-14T00:32:35;10.75;;;3.72;;
23078;SDS011;11707;50.830;4.364;2024-02-14T00:35:01;9.10;;;3.60;;
23078;SDS011;11707;50.830;4.364;2024-02-14T00:37:29;7.82;;;3.53;;
23078;SDS011;11707;50.830;4.364;2024-02-14T00:39:58;4.68;;;2.95;;
23078;SDS011;11707;50.830;4.364;2024-02-14T00:42:24;7.20;;;3.33;;
23078;SDS011;11707;50.830;4.364;2024-02-14T00:44:52;7.70;;;3.08;;
23078;SDS011;11707;50.830;4.364;2024-02-14T00:47:18;5.85;;;3.30;;
23078;SDS011;11707;50.830;4.364;2024-02-14T00:49:44;6.15;;;3.50;;
23078;SDS011;11707;50.830;4.364;2024-02-14T00:52:09;7.63;;;3.80;;
23078;SDS011;11707;50.830;4.364;2024-02-14T00:54:35;7.88;;;3.70;;
23078;SDS011;11707;50.830;4.364;2024-02-14T00:57:03;5.35;;;3.20;;
23078;SDS011;11707;50.830;4.364;2024-02-14T00:59:33;11.07;;;3.38;;
23078;SDS011;11707;50.830;4.364;2024-02-14T01:01:59;10.15;;;3.30;;
23078;SDS011;11707;50.830;4.364;2024-02-14T01:04:28;10.18;;;3.60;;
23078;SDS011;11707;50.830;4.364;2024-02-14T01:06:56;8.63;;;3.70;;
23078;SDS011;11707;50.830;4.364;2024-02-14T01:09:21;6.07;;;4.13;;
23078;SDS011;11707;50.830;4.364;2024-02-14T01:11:47;7.28;;;3.92;;
23078;SDS011;11707;50.830;4.364;2024-02-14T01:14:14;6.85;;;3.92;;
23078;SDS011;11707;50.830;4.364;2024-02-14T01:16:43;7.47;;;4.57;;
23078;SDS011;11707;50.830;4.364;2024-02-14T01:19:10;17.52;;;4.40;;
23078;SDS011;11707;50.830;4.364;2024-02-14T01:21:38;8.35;;;4.18;;
23078;SDS011;11707;50.830;4.364;2024-02-14T01:24:04;5.55;;;3.55;;
23078;SDS011;11707;50.830;4.364;2024-02-14T01:26:33;8.85;;;4.20;;
23078;SDS011;11707;50.830;4.364;2024-02-14T01:29:02;8.38;;;4.72;;
23078;SDS011;11707;50.830;4.364;2024-02-14T01:31:27;10.85;;;4.95;;
23078;SDS011;11707;50.830;4.364;2024-02-14T01:33:54;10.85;;;4.53;;
23078;SDS011;11707;50.830;4.364;2024-02-14T01:36:22;8.55;;;4.60;;
23078;SDS011;11707;50.830;4.364;2024-02-14T01:38:48;9.45;;;5.15;;
23078;SDS011;11707;50.830;4.364;2024-02-14T01:41:13;7.90;;;4.78;;
23078;SDS011;11707;50.830;4.364;2024-02-14T01:43:39;10.93;;;5.05;;
23078;SDS011;11707;50.830;4.364;2024-02-14T01:46:07;22.30;;;4.93;;
23078;SDS011;11707;50.830;4.364;2024-02-14T01:48:34;9.70;;;5.22;;
23078;SDS011;11707;50.830;4.364;2024-02-14T01:51:00;11.27;;;5.65;;
23078;SDS011;11707;50.830;4.364;2024-02-14T01:53:27;9.10;;;4.68;;
23078;SDS011;11707;50.830;4.364;2024-02-14T01:55:56;8.10;;;4.80;;
23078;SDS011;11707;50.830;4.364;2024-02-14T01:58:25;10.68;;;6.10;;
23078;SDS011;11707;50.830;4.364;2024-02-14T02:00:51;9.00;;;4.60;;
23078;SDS011;11707;50.830;4.364;2024-02-14T02:03:22;13.40;;;6.45;;
23078;SDS011;11707;50.830;4.364;2024-02-14T02:05:49;8.52;;;5.60;;
23078;SDS011;11707;50.830;4.364;2024-02-14T02:08:15;11.93;;;5.88;;
23078;SDS011;11707;50.830;4.364;2024-02-14T02:10:40;10.70;;;5.32;;
23078;SDS011;11707;50.830;4.364;2024-02-14T02:13:06;10.65;;;5.85;;
23078;SDS011;11707;50.830;4.364;2024-02-14T02:15:34;10.43;;;5.90;;
23078;SDS011;11707;50.830;4.364;2024-02-14T02:18:00;14.77;;;5.88;;
23078;SDS011;11707;50.830;4.364;2024-02-14T02:20:31;9.70;;;5.82;;
23078;SDS011;11707;50.830;4.364;2024-02-14T02:22:59;9.27;;;5.78;;
23078;SDS011;11707;50.830;4.364;2024-02-14T02:25:25;10.95;;;5.78;;
23078;SDS011;11707;50.830;4.364;2024-02-14T02:27:54;13.05;;;6.13;;
23078;SDS011;11707;50.830;4.364;2024-02-14T02:30:22;11.90;;;5.65;;
23078;SDS011;11707;50.830;4.364;2024-02-14T02:32:49;14.38;;;5.68;;
23078;SDS011;11707;50.830;4.364;2024-02-14T02:35:16;14.35;;;6.78;;
23078;SDS011;11707;50.830;4.364;2024-02-14T02:37:44;12.48;;;6.05;;
23078;SDS011;11707;50.830;4.364;2024-02-14T02:40:10;10.02;;;5.88;;
23078;SDS011;11707;50.830;4.364;2024-02-14T02:42:37;11.27;;;6.60;;
23078;SDS011;11707;50.830;4.364;2024-02-14T02:45:03;11.23;;;6.72;;
23078;SDS011;11707;50.830;4.364;2024-02-14T02:47:31;12.02;;;5.95;;
23078;SDS011;11707;50.830;4.364;2024-02-14T02:49:57;10.07;;;6.07;;
23078;SDS011;11707;50.830;4.364;2024-02-14T02:52:25;15.25;;;7.28;;
23078;SDS011;11707;50.830;4.364;2024-02-14T02:54:50;12.05;;;6.60;;
23078;SDS011;11707;50.830;4.364;2024-02-14T02:57:18;12.20;;;6.82;;
23078;SDS011;11707;50.830;4.364;2024-02-14T02:59:44;14.10;;;7.28;;
23078;SDS011;11707;50.830;4.364;2024-02-14T03:02:13;13.13;;;6.97;;
23078;SDS011;11707;50.830;4.364;2024-02-14T03:04:39;15.80;;;6.28;;
23078;SDS011;11707;50.830;4.364;2024-02-14T03:07:05;12.20;;;6.45;;
23078;SDS011;11707;50.830;4.364;2024-02-14T03:09:33;12.43;;;6.05;;
23078;SDS011;11707;50.830;4.364;2024-02-14T03:12:00;19.08;;;7.40;;
23078;SDS011;11707;50.830;4.364;2024-02-14T03:14:28;13.95;;;6.32;;
23078;SDS011;11707;50.830;4.364;2024-02-14T03:16:57;13.35;;;6.70;;
23078;SDS011;11707;50.830;4.364;2024-02-14T03:19:27;13.32;;;7.45;;
23078;SDS011;11707;50.830;4.364;2024-02-14T03:21:54;18.48;;;7.53;;
23078;SDS011;11707;50.830;4.364;2024-02-14T03:24:20;13.05;;;7.00;;
23078;SDS011;11707;50.830;4.364;2024-02-14T03:26:45;15.15;;;6.85;;
23078;SDS011;11707;50.830;4.364;2024-02-14T03:29:11;13.32;;;7.65;;
23078;SDS011;11707;50.830;4.364;2024-02-14T03:31:41;17.27;;;7.60;;
23078;SDS011;11707;50.830;4.364;2024-02-14T03:34:09;15.52;;;8.07;;
23078;SDS011;11707;50.830;4.364;2024-02-14T03:36:36;18.42;;;7.90;;
23078;SDS011;11707;50.830;4.364;2024-02-14T03:39:03;21.73;;;8.63;;
23078;SDS011;11707;50.830;4.364;2024-02-14T03:41:30;19.33;;;8.38;;
23078;SDS011;11707;50.830;4.364;2024-02-14T03:43:59;15.00;;;8.57;;
23078;SDS011;11707;50.830;4.364;2024-02-14T03:46:26;15.93;;;8.07;;
23078;SDS011;11707;50.830;4.364;2024-02-14T03:48:55;17.08;;;7.90;;
23078;SDS011;11707;50.830;4.364;2024-02-14T03:51:22;12.80;;;9.10;;
23078;SDS011;11707;50.830;4.364;2024-02-14T03:53:48;18.63;;;9.50;;
23078;SDS011;11707;50.830;4.364;2024-02-14T03:56:17;16.30;;;8.70;;
23078;SDS011;11707;50.830;4.364;2024-02-14T03:58:42;15.82;;;9.02;;
23078;SDS011;11707;50.830;4.364;2024-02-14T04:01:08;23.27;;;8.90;;
23078;SDS011;11707;50.830;4.364;2024-02-14T04:03:36;17.60;;;9.20;;
23078;SDS011;11707;50.830;4.364;2024-02-14T04:06:02;24.50;;;10.15;;
23078;SDS011;11707;50.830;4.364;2024-02-14T04:08:28;15.43;;;8.40;;
23078;SDS011;11707;50.830;4.364;2024-02-14T04:10:54;13.63;;;9.02;;
23078;SDS011;11707;50.830;4.364;2024-02-14T04:13:20;20.48;;;9.77;;
23078;SDS011;11707;50.830;4.364;2024-02-14T04:15:46;17.83;;;9.52;;
23078;SDS011;11707;50.830;4.364;2024-02-14T04:18:12;17.10;;;10.43;;
23078;SDS011;11707;50.830;4.364;2024-02-14T04:20:40;18.63;;;9.77;;
23078;SDS011;11707;50.830;4.364;2024-02-14T04:23:06;19.05;;;11.07;;
23078;SDS011;11707;50.830;4.364;2024-02-14T04:25:32;22.92;;;11.52;;
23078;SDS011;11707;50.830;4.364;2024-02-14T04:28:02;21.83;;;11.50;;
23078;SDS011;11707;50.830;4.364;2024-02-14T04:30:28;20.13;;;10.95;;
23078;SDS011;11707;50.830;4.364;2024-02-14T04:32:53;21.83;;;11.95;;
23078;SDS011;11707;50.830;4.364;2024-02-14T04:35:19;32.28;;;11.23;;
23078;SDS011;11707;50.830;4.364;2024-02-14T04:37:45;14.98;;;9.73;;
23078;SDS011;11707;50.830;4.364;2024-02-14T04:40:13;19.67;;;10.77;;
23078;SDS011;11707;50.830;4.364;2024-02-14T04:42:39;15.77;;;10.13;;
23078;SDS011;11707;50.830;4.364;2024-02-14T04:45:06;16.75;;;9.95;;
23078;SDS011;11707;50.830;4.364;2024-02-14T04:47:35;23.33;;;10.23;;
23078;SDS011;11707;50.830;4.364;2024-02-14T04:50:01;18.48;;;9.68;;
23078;SDS011;11707;50.830;4.364;2024-02-14T04:52:29;19.65;;;8.98;;
23078;SDS011;11707;50.830;4.364;2024-02-14T04:54:55;18.85;;;9.98;;
23078;SDS011;11707;50.830;4.364;2024-02-14T04:57:21;23.30;;;10.18;;
23078;SDS011;11707;50.830;4.364;2024-02-14T04:59:47;18.08;;;9.88;;
23078;SDS011;11707;50.830;4.364;2024-02-14T05:02:13;17.35;;;9.70;;
23078;SDS011;11707;50.830;4.364;2024-02-14T05:04:38;19.52;;;9.50;;
23078;SDS011;11707;50.830;4.364;2024-02-14T05:07:04;22.15;;;10.20;;
23078;SDS011;11707;50.830;4.364;2024-02-14T05:09:33;19.45;;;10.07;;
23078;SDS011;11707;50.830;4.364;2024-02-14T05:12:01;23.67;;;10.55;;
23078;SDS011;11707;50.830;4.364;2024-02-14T05:14:28;23.33;;;9.65;;
23078;SDS011;11707;50.830;4.364;2024-02-14T05:16:59;21.48;;;9.75;;
23078;SDS011;11707;50.830;4.364;2024-02-14T05:19:27;16.70;;;10.52;;
23078;SDS011;11707;50.830;4.364;2024-02-14T05:21:54;17.83;;;10.05;;
23078;SDS011;11707;50.830;4.364;2024-02-14T05:24:20;15.10;;;9.48;;
23078;SDS011;11707;50.830;4.364;2024-02-14T05:26:48;16.35;;;10.18;;
23078;SDS011;11707;50.830;4.364;2024-02-14T05:29:15;20.83;;;10.77;;
23078;SDS011;11707;50.830;4.364;2024-02-14T05:31:44;13.98;;;9.40;;
23078;SDS011;11707;50.830;4.364;2024-02-14T05:34:13;17.92;;;9.63;;
23078;SDS011;11707;50.830;4.364;2024-02-14T05:36:40;17.83;;;10.70;;
23078;SDS011;11707;50.830;4.364;2024-02-14T05:39:07;18.70;;;10.25;;
23078;SDS011;11707;50.830;4.364;2024-02-14T05:41:33;20.42;;;9.63;;
23078;SDS011;11707;50.830;4.364;2024-02-14T05:43:59;17.48;;;10.70;;
23078;SDS011;11707;50.830;4.364;2024-02-14T05:46:25;19.27;;;11.13;;
23078;SDS011;11707;50.830;4.364;2024-02-14T05:48:51;17.42;;;10.68;;
23078;SDS011;11707;50.830;4.364;2024-02-14T05:51:20;24.50;;;10.68;;
23078;SDS011;11707;50.830;4.364;2024-02-14T05:53:48;19.23;;;10.63;;
23078;SDS011;11707;50.830;4.364;2024-02-14T05:56:13;18.85;;;10.90;;
23078;SDS011;11707;50.830;4.364;2024-02-14T05:58:39;19.55;;;11.32;;
23078;SDS011;11707;50.830;4.364;2024-02-14T06:01:09;22.35;;;10.68;;
23078;SDS011;11707;50.830;4.364;2024-02-14T06:03:35;18.90;;;9.80;;
23078;SDS011;11707;50.830;4.364;2024-02-14T06:06:00;19.75;;;10.48;;
23078;SDS011;11707;50.830;4.364;2024-02-14T06:08:28;20.23;;;10.25;;
23078;SDS011;11707;50.830;4.364;2024-02-14T06:10:54;16.88;;;10.25;;
23078;SDS011;11707;50.830;4.364;2024-02-14T06:13:20;21.05;;;11.05;;
23078;SDS011;11707;50.830;4.364;2024-02-14T06:15:47;17.48;;;10.10;;
23078;SDS011;11707;50.830;4.364;2024-02-14T06:18:13;17.73;;;10.38;;
23078;SDS011;11707;50.830;4.364;2024-02-14T06:20:39;19.40;;;10.13;;
23078;SDS011;11707;50.830;4.364;2024-02-14T06:23:07;21.80;;;10.90;;
23078;SDS011;11707;50.830;4.364;2024-02-14T06:25:33;24.58;;;9.98;;
23078;SDS011;11707;50.830;4.364;2024-02-14T06:27:59;15.98;;;9.52;;
23078;SDS011;11707;50.830;4.364;2024-02-14T06:30:27;17.65;;;9.25;;
23078;SDS011;11707;50.830;4.364;2024-02-14T06:32:52;19.90;;;10.00;;
23078;SDS011;11707;50.830;4.364;2024-02-14T06:35:18;16.52;;;8.85;;
23078;SDS011;11707;50.830;4.364;2024-02-14T06:37:46;22.17;;;9.00;;
23078;SDS011;11707;50.830;4.364;2024-02-14T06:40:14;20.40;;;9.40;;
23078;SDS011;11707;50.830;4.364;2024-02-14T06:42:39;14.80;;;8.80;;
23078;SDS011;11707;50.830;4.364;2024-02-14T06:45:05;22.70;;;9.25;;
23078;SDS011;11707;50.830;4.364;2024-02-14T06:47:31;18.23;;;9.68;;
23078;SDS011;11707;50.830;4.364;2024-02-14T06:49:57;21.55;;;9.52;;
23078;SDS011;11707;50.830;4.364;2024-02-14T06:52:23;24.33;;;9.20;;
23078;SDS011;11707;50.830;4.364;2024-02-14T06:54:51;24.02;;;10.60;;
23078;SDS011;11707;50.830;4.364;2024-02-14T06:57:17;19.80;;;8.18;;
23078;SDS011;11707;50.830;4.364;2024-02-14T06:59:43;20.75;;;8.73;;
23078;SDS011;11707;50.830;4.364;2024-02-14T07:02:09;16.63;;;9.45;;
23078;SDS011;11707;50.830;4.364;2024-02-14T07:04:35;19.08;;;9.10;;
23078;SDS011;11707;50.830;4.364;2024-02-14T07:07:03;20.23;;;8.95;;
23078;SDS011;11707;50.830;4.364;2024-02-14T07:09:30;20.23;;;8.55;;
23078;SDS011;11707;50.830;4.364;2024-02-14T07:11:55;16.83;;;9.18;;
23078;SDS011;11707;50.830;4.364;2024-02-14T07:14:23;18.73;;;9.52;;
23078;SDS011;11707;50.830;4.364;2024-02-14T07:16:49;20.80;;;9.35;;
23078;SDS011;11707;50.830;4.364;2024-02-14T07:19:14;15.82;;;8.95;;
23078;SDS011;11707;50.830;4.364;2024-02-14T07:21:42;15.68;;;9.10;;
23078;SDS011;11707;50.830;4.364;2024-02-14T07:24:10;16.15;;;9.23;;
23078;SDS011;11707;50.830;4.364;2024-02-14T07:26:36;23.00;;;9.10;;
23078;SDS011;11707;50.830;4.364;2024-02-14T07:29:01;20.63;;;9.48;;
23078;SDS011;11707;50.830;4.364;2024-02-14T07:31:31;14.18;;;8.98;;
23078;SDS011;11707;50.830;4.364;2024-02-14T07:33:58;14.60;;;8.50;;
23078;SDS011;11707;50.830;4.364;2024-02-14T07:36:28;20.90;;;9.73;;
23078;SDS011;11707;50.830;4.364;2024-02-14T07:38:54;18.33;;;8.98;;
23078;SDS011;11707;50.830;4.364;2024-02-14T07:41:20;16.25;;;8.32;;
23078;SDS011;11707;50.830;4.364;2024-02-14T07:43:46;18.42;;;8.95;;
23078;SDS011;11707;50.830;4.364;2024-02-14T07:46:16;19.63;;;8.85;;
23078;SDS011;11707;50.830;4.364;2024-02-14T07:48:44;14.50;;;8.85;;
23078;SDS011;11707;50.830;4.364;2024-02-14T07:51:14;14.93;;;9.25;;
23078;SDS011;11707;50.830;4.364;2024-02-14T07:53:44;17.60;;;9.38;;
23078;SDS011;11707;50.830;4.364;2024-02-14T07:56:10;19.80;;;9.20;;
23078;SDS011;11707;50.830;4.364;2024-02-14T07:58:36;16.73;;;8.45;;
23078;SDS011;11707;50.830;4.364;2024-02-14T08:01:04;17.75;;;9.00;;
23078;SDS011;11707;50.830;4.364;2024-02-14T08:03:30;17.88;;;8.45;;
23078;SDS011;11707;50.830;4.364;2024-02-14T08:05:56;18.70;;;9.07;;
23078;SDS011;11707;50.830;4.364;2024-02-14T08:08:25;15.05;;;9.15;;
23078;SDS011;11707;50.830;4.364;2024-02-14T08:10:52;19.25;;;8.70;;
23078;SDS011;11707;50.830;4.364;2024-02-14T08:13:18;15.68;;;8.60;;
23078;SDS011;11707;50.830;4.364;2024-02-14T08:15:43;14.05;;;8.88;;
23078;SDS011;11707;50.830;4.364;2024-02-14T08:18:11;14.95;;;8.20;;
23078;SDS011;11707;50.830;4.364;2024-02-14T08:20:37;16.25;;;8.82;;
23078;SDS011;11707;50.830;4.364;2024-02-14T08:23:03;16.05;;;9.30;;
23078;SDS011;11707;50.830;4.364;2024-02-14T08:25:29;20.88;;;9.90;;
23078;SDS011;11707;50.830;4.364;2024-02-14T08:27:57;19.00;;;9.88;;
23078;SDS011;11707;50.830;4.364;2024-02-14T08:30:22;13.57;;;7.85;;
23078;SDS011;11707;50.830;4.364;2024-02-14T08:32:48;15.40;;;9.60;;
23078;SDS011;11707;50.830;4.364;2024-02-14T08:35:14;19.80;;;10.00;;
23078;SDS011;11707;50.830;4.364;2024-02-14T08:37:40;20.95;;;9.80;;
23078;SDS011;11707;50.830;4.364;2024-02-14T08:40:06;17.00;;;9.98;;
23078;SDS011;11707;50.830;4.364;2024-02-14T08:42:33;18.48;;;9.52;;
23078;SDS011;11707;50.830;4.364;2024-02-14T08:45:02;17.45;;;10.00;;
23078;SDS011;11707;50.830;4.364;2024-02-14T08:47:30;16.92;;;9.88;;
23078;SDS011;11707;50.830;4.364;2024-02-14T08:49:56;18.52;;;10.65;;
23078;SDS011;11707;50.830;4.364;2024-02-14T08:52:22;19.13;;;9.85;;
23078;SDS011;11707;50.830;4.364;2024-02-14T08:54:47;15.98;;;9.93;;
23078;SDS011;11707;50.830;4.364;2024-02-14T08:57:13;20.80;;;10.85;;
23078;SDS011;11707;50.830;4.364;2024-02-14T08:59:39;16.42;;;9.70;;
23078;SDS011;11707;50.830;4.364;2024-02-14T09:02:06;16.00;;;9.80;;
23078;SDS011;11707;50.830;4.364;2024-02-14T09:04:35;17.67;;;9.88;;
23078;SDS011;11707;50.830;4.364;2024-02-14T09:07:00;17.80;;;11.00;;
23078;SDS011;11707;50.830;4.364;2024-02-14T09:09:26;17.55;;;10.55;;
23078;SDS011;11707;50.830;4.364;2024-02-14T09:11:54;22.35;;;11.00;;
23078;SDS011;11707;50.830;4.364;2024-02-14T09:14:22;18.73;;;10.57;;
23078;SDS011;11707;50.830;4.364;2024-02-14T09:16:48;22.33;;;11.20;;
23078;SDS011;11707;50.830;4.364;2024-02-14T09:19:13;14.85;;;9.95;;
23078;SDS011;11707;50.830;4.364;2024-02-14T09:21:39;16.33;;;9.82;;
23078;SDS011;11707;50.830;4.364;2024-02-14T09:24:05;15.82;;;10.35;;
23078;SDS011;11707;50.830;4.364;2024-02-14T09:26:31;16.10;;;10.65;;
23078;SDS011;11707;50.830;4.364;2024-02-14T09:28:57;13.48;;;9.50;;
23078;SDS011;11707;50.830;4.364;2024-02-14T09:31:25;17.58;;;10.75;;
23078;SDS011;11707;50.830;4.364;2024-02-14T09:33:51;21.73;;;10.13;;
23078;SDS011;11707;50.830;4.364;2024-02-14T09:36:21;15.30;;;10.05;;
23078;SDS011;11707;50.830;4.364;2024-02-14T09:38:51;20.05;;;10.10;;
23078;SDS011;11707;50.830;4.364;2024-02-14T09:43:58;12.60;;;9.02;;
23078;SDS011;11707;50.830;4.364;2024-02-14T09:46:26;18.40;;;9.57;;
23078;SDS011;11707;50.830;4.364;2024-02-14T09:48:52;14.98;;;9.13;;
23078;SDS011;11707;50.830;4.364;2024-02-14T09:51:21;14.63;;;8.85;;
23078;SDS011;11707;50.830;4.364;2024-02-14T09:53:48;18.20;;;8.88;;
23078;SDS011;11707;50.830;4.364;2024-02-14T09:56:15;17.08;;;9.57;;
23078;SDS011;11707;50.830;4.364;2024-02-14T09:58:44;14.00;;;8.68;;
23078;SDS011;11707;50.830;4.364;2024-02-14T10:01:18;18.02;;;10.10;;
23078;SDS011;11707;50.830;4.364;2024-02-14T10:03:52;13.52;;;9.13;;
23078;SDS011;11707;50.830;4.364;2024-02-14T10:06:19;12.70;;;8.93;;
23078;SDS011;11707;50.830;4.364;2024-02-14T10:08:46;11.98;;;8.40;;
23078;SDS011;11707;50.830;4.364;2024-02-14T10:11:13;11.55;;;8.50;;
23078;SDS011;11707;50.830;4.364;2024-02-14T10:13:45;15.05;;;9.00;;
23078;SDS011;11707;50.830;4.364;2024-02-14T10:16:12;13.40;;;8.65;;
23078;SDS011;11707;50.830;4.364;2024-02-14T10:18:39;19.90;;;8.60;;
23078;SDS011;11707;50.830;4.364;2024-02-14T10:21:05;13.63;;;8.60;;
23078;SDS011;11707;50.830;4.364;2024-02-14T10:23:31;13.45;;;8.10;;
23078;SDS011;11707;50.830;4.364;2024-02-14T10:25:57;11.80;;;7.95;;
23078;SDS011;11707;50.830;4.364;2024-02-14T10:28:23;15.25;;;8.82;;
23078;SDS011;11707;50.830;4.364;2024-02-14T10:30:51;16.73;;;8.27;;
23078;SDS011;11707;50.830;4.364;2024-02-14T10:33:19;11.88;;;7.95;;
23078;SDS011;11707;50.830;4.364;2024-02-14T10:35:45;10.18;;;7.65;;
23078;SDS011;11707;50.830;4.364;2024-02-14T10:38:14;11.68;;;6.60;;
23078;SDS011;11707;50.830;4.364;2024-02-14T10:40:43;12.25;;;7.45;;
23078;SDS011;11707;50.830;4.364;2024-02-14T10:43:12;9.95;;;7.07;;
23078;SDS011;11707;50.830;4.364;2024-02-14T10:45:37;12.35;;;6.20;;
23078;SDS011;11707;50.830;4.364;2024-02-14T10:48:04;9.85;;;5.47;;
23078;SDS011;11707;50.830;4.364;2024-02-14T10:50:32;11.30;;;6.90;;
23078;SDS011;11707;50.830;4.364;2024-02-14T10:53:00;8.68;;;5.80;;
23078;SDS011;11707;50.830;4.364;2024-02-14T10:55:30;8.52;;;5.13;;
23078;SDS011;11707;50.830;4.364;2024-02-14T10:57:56;9.50;;;5.80;;
23078;SDS011;11707;50.830;4.364;2024-02-14T11:00:25;8.13;;;4.80;;
23078;SDS011;11707;50.830;4.364;2024-02-14T11:02:52;7.45;;;4.68;;
23078;SDS011;11707;50.830;4.364;2024-02-14T11:05:19;8.40;;;6.30;;
23078;SDS011;11707;50.830;4.364;2024-02-14T11:07:49;7.82;;;5.50;;
23078;SDS011;11707;50.830;4.364;2024-02-14T11:10:18;12.70;;;9.63;;
23078;SDS011;11707;50.830;4.364;2024-02-14T11:12:46;9.55;;;5.45;;
23078;SDS011;11707;50.830;4.364;2024-02-14T11:15:21;8.32;;;5.47;;
23078;SDS011;11707;50.830;4.364;2024-02-14T11:17:49;9.90;;;5.20;;
23078;SDS011;11707;50.830;4.364;2024-02-14T11:22:53;7.35;;;4.90;;
23078;SDS011;11707;50.830;4.364;2024-02-14T11:25:38;8.95;;;5.25;;
23078;SDS011;11707;50.830;4.364;2024-02-14T11:28:14;9.50;;;5.95;;
23078;SDS011;11707;50.830;4.364;2024-02-14T11:30:41;12.07;;;5.72;;
23078;SDS011;11707;50.830;4.364;2024-02-14T11:33:21;10.38;;;5.93;;
23078;SDS011;11707;50.830;4.364;2024-02-14T11:35:52;12.15;;;6.18;;
23078;SDS011;11707;50.830;4.364;2024-02-14T11:38:27;11.15;;;5.57;;
23078;SDS011;11707;50.830;4.364;2024-02-14T11:40:56;10.38;;;6.40;;
23078;SDS011;11707;50.830;4.364;2024-02-14T11:43:22;9.98;;;6.68;;
23078;SDS011;11707;50.830;4.364;2024-02-14T11:45:48;14.93;;;6.68;;
23078;SDS011;11707;50.830;4.364;2024-02-14T11:48:17;14.55;;;7.30;;
23078;SDS011;11707;50.830;4.364;2024-02-14T11:50:46;14.20;;;6.60;;
23078;SDS011;11707;50.830;4.364;2024-02-14T11:53:13;17.17;;;7.18;;
23078;SDS011;11707;50.830;4.364;2024-02-14T11:55:45;12.27;;;7.97;;
23078;SDS011;11707;50.830;4.364;2024-02-14T11:58:14;17.80;;;7.60;;
23078;SDS011;11707;50.830;4.364;2024-02-14T12:00:42;16.10;;;7.05;;
23078;SDS011;11707;50.830;4.364;2024-02-14T12:03:12;13.98;;;6.10;;
23078;SDS011;11707;50.830;4.364;2024-02-14T12:05:41;11.13;;;6.70;;
23078;SDS011;11707;50.830;4.364;2024-02-14T12:08:09;13.88;;;6.53;;
23078;SDS011;11707;50.830;4.364;2024-02-14T12:10:35;13.63;;;8.38;;
23078;SDS011;11707;50.830;4.364;2024-02-14T12:13:10;13.63;;;8.15;;
23078;SDS011;11707;50.830;4.364;2024-02-14T12:15:44;16.08;;;7.60;;
23078;SDS011;11707;50.830;4.364;2024-02-14T12:18:11;11.55;;;6.35;;
23078;SDS011;11707;50.830;4.364;2024-02-14T12:20:40;14.98;;;7.80;;
23078;SDS011;11707;50.830;4.364;2024-02-14T12:23:07;14.38;;;8.50;;
23078;SDS011;11707;50.830;4.364;2024-02-14T12:25:39;15.43;;;7.78;;
23078;SDS011;11707;50.830;4.364;2024-02-14T12:28:05;17.70;;;8.15;;
23078;SDS011;11707;50.830;4.364;2024-02-14T12:30:50;15.48;;;7.55;;
23078;SDS011;11707;50.830;4.364;2024-02-14T12:33:26;12.68;;;7.07;;
23078;SDS011;11707;50.830;4.364;2024-02-14T12:35:55;18.15;;;7.43;;
23078;SDS011;11707;50.830;4.364;2024-02-14T12:38:23;11.10;;;6.78;;
23078;SDS011;11707;50.830;4.364;2024-02-14T12:40:49;13.20;;;6.05;;
23078;SDS011;11707;50.830;4.364;2024-02-14T12:43:19;11.60;;;6.93;;
23078;SDS011;11707;50.830;4.364;2024-02-14T12:45:45;9.23;;;6.40;;
23078;SDS011;11707;50.830;4.364;2024-02-14T12:48:13;12.35;;;5.30;;
23078;SDS011;11707;50.830;4.364;2024-02-14T12:50:46;10.65;;;6.03;;
23078;SDS011;11707;50.830;4.364;2024-02-14T12:53:14;9.60;;;6.00;;
23078;SDS011;11707;50.830;4.364;2024-02-14T12:55:41;11.23;;;6.10;;
23078;SDS011;11707;50.830;4.364;2024-02-14T12:58:09;16.00;;;6.78;;
23078;SDS011;11707;50.830;4.364;2024-02-14T13:00:35;10.40;;;6.45;;
23078;SDS011;11707;50.830;4.364;2024-02-14T13:03:01;10.13;;;6.10;;
23078;SDS011;11707;50.830;4.364;2024-02-14T13:05:27;9.35;;;5.65;;
23078;SDS011;11707;50.830;4.364;2024-02-14T13:07:52;6.75;;;5.35;;
23078;SDS011;11707;50.830;4.364;2024-02-14T13:10:18;11.23;;;5.90;;
23078;SDS011;11707;50.830;4.364;2024-02-14T13:12:44;13.52;;;5.95;;
23078;SDS011;11707;50.830;4.364;2024-02-14T13:15:10;13.02;;;5.68;;
23078;SDS011;11707;50.830;4.364;2024-02-14T13:17:36;11.32;;;4.50;;
23078;SDS011;11707;50.830;4.364;2024-02-14T13:20:05;11.50;;;5.57;;
23078;SDS011;11707;50.830;4.364;2024-02-14T13:22:31;12.35;;;5.45;;
23078;SDS011;11707;50.830;4.364;2024-02-14T13:24:58;11.02;;;5.90;;
23078;SDS011;11707;50.830;4.364;2024-02-14T13:27:28;12.05;;;5.80;;
23078;SDS011;11707;50.830;4.364;2024-02-14T13:29:54;10.85;;;4.82;;
23078;SDS011;11707;50.830;4.364;2024-02-14T13:32:19;9.82;;;5.38;;
23078;SDS011;11707;50.830;4.364;2024-02-14T13:34:47;7.32;;;4.85;;
23078;SDS011;11707;50.830;4.364;2024-02-14T13:37:13;9.35;;;5.57;;
23078;SDS011;11707;50.830;4.364;2024-02-14T13:39:40;12.18;;;5.70;;
23078;SDS011;11707;50.830;4.364;2024-02-14T13:42:06;11.65;;;5.55;;
23078;SDS011;11707;50.830;4.364;2024-02-14T13:44:33;9.50;;;5.50;;
23078;SDS011;11707;50.830;4.364;2024-02-14T13:46:58;11.52;;;5.72;;
23078;SDS011;11707;50.830;4.364;2024-02-14T13:49:24;12.05;;;5.43;;
23078;SDS011;11707;50.830;4.364;2024-02-14T13:51:53;15.40;;;5.30;;
23078;SDS011;11707;50.830;4.364;2024-02-14T13:54:19;8.98;;;5.00;;
23078;SDS011;11707;50.830;4.364;2024-02-14T13:56:45;7.63;;;4.80;;
23078;SDS011;11707;50.830;4.364;2024-02-14T13:59:13;9.98;;;5.15;;
23078;SDS011;11707;50.830;4.364;2024-02-14T14:01:39;8.55;;;5.15;;
23078;SDS011;11707;50.830;4.364;2024-02-14T14:04:05;10.40;;;5.15;;
23078;SDS011;11707;50.830;4.364;2024-02-14T14:06:33;7.90;;;4.70;;
23078;SDS011;11707;50.830;4.364;2024-02-14T14:09:00;9.07;;;4.80;;
23078;SDS011;11707;50.830;4.364;2024-02-14T14:11:28;10.10;;;4.50;;
23078;SDS011;11707;50.830;4.364;2024-02-14T14:13:53;9.95;;;5.10;;
23078;SDS011;11707;50.830;4.364;2024-02-14T14:16:19;9.27;;;4.78;;
23078;SDS011;11707;50.830;4.364;2024-02-14T14:18:47;7.80;;;4.60;;
23078;SDS011;11707;50.830;4.364;2024-02-14T14:21:15;6.68;;;4.32;;
23078;SDS011;11707;50.830;4.364;2024-02-14T14:23:41;7.40;;;4.45;;
23078;SDS011;11707;50.830;4.364;2024-02-14T14:26:07;7.85;;;4.30;;
23078;SDS011;11707;50.830;4.364;2024-02-14T14:28:35;8.63;;;4.35;;
23078;SDS011;11707;50.830;4.364;2024-02-14T14:31:01;9.43;;;3.83;;
23078;SDS011;11707;50.830;4.364;2024-02-14T14:33:29;9.63;;;4.72;;
23078;SDS011;11707;50.830;4.364;2024-02-14T14:35:55;6.03;;;4.00;;
23078;SDS011;11707;50.830;4.364;2024-02-14T14:38:21;4.78;;;3.30;;
23078;SDS011;11707;50.830;4.364;2024-02-14T14:40:47;6.63;;;4.45;;